Time;durP1;ratioP1;P1;durP2;ratioP2;P2;SDS_P1;SDS_P2;PMS_P1;PMS_P2;Temp;Humidity;BMP_temperature;BMP_pressure;BME280_temperature;BME280_humidity;BME280_pressure;Samples;Min_cycle;Max_cycle;Signal;HPM_P1;HPM_P2
2022/04/27 00:00:33;;;;;;;0.00;0.00;;;12.10;84.00;;;;;;4169352;28;20045;-70
2022/04/27 00:02:57;;;;;;;0.00;0.00;;;12.20;83.70;;;;;;4155578;28;20049;-68
2022/04/27 00:05:20;;;;;;;0.00;0.00;;;12.20;83.70;;;;;;4183161;28;20053;-69
2022/04/27 00:07:42;;;;;;;0.00;0.00;;;12.20;83.80;;;;;;4163237;28;20061;-69
2022/04/27 00:10:08;;;;;;;0.00;0.00;;;12.00;84.10;;;;;;4185755;28;20446;-70
2022/04/27 00:12:33;;;;;;;0.00;0.00;;;12.00;84.30;;;;;;4200531;28;20466;-68
2022/04/27 00:14:57;;;;;;;0.00;0.00;;;12.00;84.50;;;;;;4185843;28;20044;-69
2022/04/27 00:17:24;;;;;;;0.00;0.00;;;12.00;84.70;;;;;;4172352;28;20037;-69
2022/04/27 00:20:05;;;;;;;0.00;0.00;;;11.90;84.80;;;;;;4173805;28;20455;-67
2022/04/27 00:22:27;;;;;;;0.00;0.00;;;11.90;84.80;;;;;;4212784;28;20054;-68
2022/04/27 00:24:56;;;;;;;0.00;0.00;;;11.80;84.90;;;;;;4201907;28;20394;-72
2022/04/27 00:27:34;;;;;;;0.00;0.00;;;11.80;85.10;;;;;;4201616;28;20119;-69
2022/04/27 00:30:12;;;;;;;0.00;0.00;;;11.80;85.10;;;;;;4216759;28;20052;-69
2022/04/27 00:32:39;;;;;;;0.00;0.00;;;11.70;85.20;;;;;;4201981;28;20076;-70
2022/04/27 00:35:08;;;;;;;;;;;11.80;85.30;;;;;;4189324;28;20057;-68
2022/04/27 00:37:48;;;;;;;0.00;0.00;;;11.70;85.20;;;;;;4187552;28;19998;-67
2022/04/27 00:40:17;;;;;;;0.00;0.00;;;11.70;85.30;;;;;;4195281;28;20479;-67
2022/04/27 00:42:42;;;;;;;0.00;0.00;;;11.60;85.50;;;;;;4196362;28;20048;-68
2022/04/27 00:45:07;;;;;;;0.00;0.00;;;11.70;85.50;;;;;;4168529;28;20188;-66
2022/04/27 00:47:34;;;;;;;0.00;0.00;;;11.70;85.60;;;;;;4182148;28;20080;-70
2022/04/27 00:50:09;;;;;;;0.00;0.00;;;11.70;85.70;;;;;;4183333;28;20079;-69
2022/04/27 00:52:32;;;;;;;0.00;0.00;;;11.80;85.60;;;;;;4182825;28;20173;-68
2022/04/27 00:54:59;;;;;;;0.00;0.00;;;11.80;85.50;;;;;;4182376;28;20357;-69
2022/04/27 00:57:36;;;;;;;0.00;0.00;;;11.80;85.80;;;;;;4182318;28;20061;-68
2022/04/27 01:00:12;;;;;;;0.00;0.00;;;11.90;85.80;;;;;;4194072;28;20036;-68
2022/04/27 01:02:46;;;;;;;0.00;0.00;;;11.90;85.80;;;;;;4182317;28;20474;-66
2022/04/27 01:05:21;;;;;;;0.00;0.00;;;11.90;85.80;;;;;;4169438;28;20040;-68
2022/04/27 01:07:59;;;;;;;0.00;0.00;;;12.00;85.80;;;;;;4186189;28;20052;-69
2022/04/27 01:10:34;;;;;;;0.00;0.00;;;12.00;85.70;;;;;;4186357;28;20040;-69
2022/04/27 01:13:02;;;;;;;0.00;0.00;;;12.00;85.60;;;;;;4185264;28;20373;-69
2022/04/27 01:15:32;;;;;;;0.00;0.00;;;12.00;85.80;;;;;;4184689;28;20053;-68
2022/04/27 01:18:01;;;;;;;0.00;0.00;;;11.80;86.40;;;;;;4199167;28;20618;-69
2022/04/27 01:20:44;;;;;;;0.00;0.00;;;11.70;86.50;;;;;;4172802;28;20091;-68
2022/04/27 01:23:27;;;;;;;0.00;0.00;;;11.80;87.00;;;;;;4181517;28;20056;-68
2022/04/27 01:26:06;;;;;;;0.00;0.00;;;11.80;86.40;;;;;;4169627;28;20488;-69
2022/04/27 01:28:32;;;;;;;0.00;0.00;;;11.90;86.40;;;;;;4167892;28;20173;-70
2022/04/27 01:31:05;;;;;;;0.00;0.00;;;11.90;86.30;;;;;;4154198;28;20068;-68
2022/04/27 01:33:29;;;;;;;0.00;0.00;;;11.90;86.40;;;;;;4153770;28;20056;-67
2022/04/27 01:35:58;;;;;;;0.00;0.00;;;11.90;86.30;;;;;;4167844;28;20136;-69
2022/04/27 01:38:24;;;;;;;0.00;0.00;;;11.90;86.40;;;;;;4186371;28;20044;-68
2022/04/27 01:40:53;;;;;;;0.00;0.00;;;11.90;86.40;;;;;;4200735;28;20049;-68
2022/04/27 01:43:19;;;;;;;0.00;0.00;;;11.80;86.50;;;;;;4186829;28;20431;-69
2022/04/27 01:45:45;;;;;;;0.00;0.00;;;11.80;86.70;;;;;;4173329;28;20092;-69
2022/04/27 01:48:08;;;;;;;0.00;0.00;;;11.70;86.80;;;;;;4200751;28;20132;-66
2022/04/27 01:50:32;;;;;;;0.00;0.00;;;11.70;86.80;;;;;;4186889;28;20654;-67
2022/04/27 01:55:37;;;;;;;0.00;0.00;;;11.80;86.80;;;;;;4200421;28;20123;-65
2022/04/27 01:58:02;;;;;;;0.00;0.00;;;11.80;86.70;;;;;;4173211;28;20053;-69
2022/04/27 02:00:25;;;;;;;0.00;0.00;;;11.70;86.60;;;;;;4186769;28;20111;-67
2022/04/27 02:02:48;;;;;;;0.00;0.00;;;11.60;86.80;;;;;;4200737;28;20109;-69
2022/04/27 02:05:10;;;;;;;0.00;0.00;;;11.40;86.80;;;;;;4186782;28;20094;-69
2022/04/27 02:07:36;;;;;;;0.00;0.00;;;11.40;86.90;;;;;;4179450;28;20053;-70
2022/04/27 02:10:00;;;;;;;0.00;0.00;;;11.40;87.20;;;;;;4169871;28;20053;-69
2022/04/27 02:12:26;;;;;;;0.00;0.00;;;11.40;87.20;;;;;;4184231;28;20374;-67
2022/04/27 02:15:07;;;;;;;0.00;0.00;;;11.40;87.00;;;;;;4172171;28;20056;-67
2022/04/27 02:17:34;;;;;;;0.00;0.00;;;11.40;86.90;;;;;;4183492;28;20147;-69
2022/04/27 02:19:59;;;;;;;0.00;0.00;;;11.40;87.00;;;;;;4169823;28;20053;-68
2022/04/27 02:22:23;;;;;;;0.00;0.00;;;11.40;87.00;;;;;;4181998;28;20049;-66
2022/04/27 02:24:47;;;;;;;0.00;0.00;;;11.40;86.90;;;;;;4187046;28;20057;-68
2022/04/27 02:27:12;;;;;;;0.00;0.00;;;11.40;86.90;;;;;;4186475;28;20099;-67
2022/04/27 02:29:36;;;;;;;0.00;0.00;;;11.40;86.90;;;;;;4185710;28;20109;-66
2022/04/27 02:32:12;;;;;;;0.00;0.00;;;11.40;87.00;;;;;;4174296;28;20096;-71
2022/04/27 02:34:37;;;;;;;0.00;0.00;;;11.40;87.00;;;;;;4173934;28;20095;-68
2022/04/27 02:37:00;;;;;;;0.00;0.00;;;11.40;87.20;;;;;;4183373;28;20045;-69
2022/04/27 02:39:24;;;;;;;0.00;0.00;;;11.40;87.30;;;;;;4182887;28;20114;-66
2022/04/27 02:41:46;;;;;;;0.00;0.00;;;11.40;87.40;;;;;;4169670;28;20049;-66
2022/04/27 02:44:09;;;;;;;0.00;0.00;;;11.20;87.70;;;;;;4169944;28;20061;-70
2022/04/27 02:46:34;;;;;;;0.00;0.00;;;11.40;87.90;;;;;;4156459;28;20064;-69
2022/04/27 02:51:51;;;;;;;0.00;0.00;;;11.50;87.50;;;;;;4182874;28;20053;-69
2022/04/27 02:54:30;;;;;;;0.00;0.00;;;11.50;87.30;;;;;;4169548;28;20099;-67
2022/04/27 02:56:57;;;;;;;0.00;0.00;;;11.60;87.20;;;;;;4169217;28;20041;-70
2022/04/27 02:59:19;;;;;;;0.00;0.00;;;11.50;87.20;;;;;;4168782;28;20068;-69
2022/04/27 03:01:45;;;;;;;0.00;0.00;;;11.50;87.40;;;;;;4169558;28;20143;-70
2022/04/27 03:04:11;;;;;;;0.00;0.00;;;11.40;87.70;;;;;;4155516;28;20412;-68
2022/04/27 03:06:33;;;;;;;0.00;0.00;;;11.30;87.90;;;;;;4169222;28;20444;-68
2022/04/27 03:08:55;;;;;;;0.00;0.00;;;11.40;88.00;;;;;;4169086;28;20166;-68
2022/04/27 03:11:23;;;;;;;0.00;0.00;;;11.40;88.10;;;;;;4169238;28;20049;-68
2022/04/27 03:14:09;;;;;;;0.00;0.00;;;11.40;88.60;;;;;;4182907;28;20059;-69
2022/04/27 03:16:33;;;;;;;0.00;0.00;;;11.40;88.20;;;;;;4168982;28;20060;-68
2022/04/27 03:18:56;;;;;;;0.00;0.00;;;11.40;88.20;;;;;;4182416;28;20123;-65
2022/04/27 03:21:18;;;;;;;0.00;0.00;;;11.30;88.10;;;;;;4168723;28;20103;-68
2022/04/27 03:23:40;;;;;;;0.00;0.00;;;11.30;88.10;;;;;;4168878;28;20057;-70
2022/04/27 03:26:09;;;;;;;0.00;0.00;;;11.20;88.30;;;;;;4168968;28;20078;-71
2022/04/27 03:28:31;;;;;;;0.00;0.00;;;11.00;88.70;;;;;;4155121;28;20046;-68
2022/04/27 03:30:54;;;;;;;0.00;0.00;;;11.00;89.00;;;;;;4169099;28;20063;-68
2022/04/27 03:33:26;;;;;;;0.00;0.00;;;11.00;88.90;;;;;;4168460;28;20051;-70
2022/04/27 03:35:48;;;;;;;0.00;0.00;;;11.00;88.80;;;;;;4169131;28;20132;-69
2022/04/27 03:38:10;;;;;;;0.00;0.00;;;10.90;88.80;;;;;;4181925;28;20510;-68
2022/04/27 03:40:37;;;;;;;0.00;0.00;;;10.80;89.10;;;;;;4169091;28;20049;-68
2022/04/27 03:42:59;;;;;;;0.00;0.00;;;10.70;89.20;;;;;;4168898;28;20045;-67
2022/04/27 03:45:24;;;;;;;0.00;0.00;;;10.70;89.30;;;;;;4154916;28;20042;-69
2022/04/27 03:47:54;;;;;;;0.00;0.00;;;10.70;89.40;;;;;;4169209;28;20049;-67
2022/04/27 03:50:19;;;;;;;0.00;0.00;;;10.70;89.50;;;;;;4168572;28;20084;-68
2022/04/27 03:52:47;;;;;;;0.00;0.00;;;10.60;89.50;;;;;;4155919;28;20481;-66
2022/04/27 03:55:13;;;;;;;0.00;0.00;;;10.70;89.50;;;;;;4168081;28;20060;-70
2022/04/27 03:57:42;;;;;;;0.00;0.00;;;10.70;89.40;;;;;;4168954;28;20053;-66
2022/04/27 04:00:06;;;;;;;0.00;0.00;;;10.60;89.60;;;;;;4155331;28;20045;-69
2022/04/27 04:02:35;;;;;;;0.00;0.00;;;10.60;89.80;;;;;;4169820;28;20118;-69
2022/04/27 04:04:59;;;;;;;0.00;0.00;;;10.50;90.00;;;;;;4168816;28;20081;-69
2022/04/27 04:07:24;;;;;;;0.00;0.00;;;10.40;90.00;;;;;;4168594;28;20117;-68
2022/04/27 04:09:50;;;;;;;0.00;0.00;;;10.30;90.40;;;;;;4169014;28;20112;-66
2022/04/27 04:12:14;;;;;;;0.00;0.00;;;10.30;90.80;;;;;;4168942;28;20053;-68
2022/04/27 04:15:08;;;;;;;0.00;0.00;;;10.20;91.10;;;;;;4178980;28;20431;-70
2022/04/27 04:17:51;;;;;;;0.00;0.00;;;10.10;91.30;;;;;;4185132;28;20056;-68
2022/04/27 04:20:28;;;;;;;0.00;0.00;;;10.10;91.60;;;;;;4156800;28;20057;-69
2022/04/27 04:23:02;;;;;;;0.00;0.00;;;9.90;91.70;;;;;;4152636;28;20064;-67
2022/04/27 04:28:31;;;;;;;0.00;0.00;;;10.10;91.60;;;;;;4166346;28;20053;-68
2022/04/27 04:30:57;;;;;;;0.00;0.00;;;10.00;91.50;;;;;;4155053;28;20058;-68
2022/04/27 04:33:40;;;;;;;0.00;0.00;;;10.00;91.60;;;;;;4148468;28;20049;-66
2022/04/27 04:36:06;;;;;;;0.00;0.00;;;9.90;91.60;;;;;;4155270;28;20056;-69
2022/04/27 04:38:30;;;;;;;0.00;0.00;;;10.00;91.60;;;;;;4155169;28;20050;-68
2022/04/27 04:40:56;;;;;;;0.00;0.00;;;10.10;91.50;;;;;;4155945;28;20085;-66
2022/04/27 04:43:32;;;;;;;0.00;0.00;;;10.20;91.40;;;;;;4155002;28;20058;-69
2022/04/27 04:45:54;;;;;;;0.00;0.00;;;10.30;91.20;;;;;;4154972;28;20050;-67
2022/04/27 04:48:41;;;;;;;0.00;0.00;;;10.30;91.10;;;;;;4168975;28;20376;-69
2022/04/27 04:51:22;;;;;;;0.00;0.00;;;10.20;91.10;;;;;;4171300;28;20053;-70
2022/04/27 04:54:31;;;;;;;0.00;0.00;;;10.20;91.10;;;;;;4144342;28;20122;-68
2022/04/27 04:57:25;;;;;;;0.00;0.00;;;10.20;91.20;;;;;;4178627;28;20118;-68
2022/04/27 05:00:08;;;;;;;0.00;0.00;;;10.20;91.30;;;;;;4168691;28;20080;-69
2022/04/27 05:02:55;;;;;;;0.00;0.00;;;10.20;91.30;;;;;;4168817;28;20055;-68
2022/04/27 05:05:44;;;;;;;0.00;0.00;;;10.30;91.20;;;;;;4153729;28;20491;-67
2022/04/27 05:08:26;;;;;;;0.00;0.00;;;10.30;91.10;;;;;;4157004;28;20045;-69
2022/04/27 05:11:23;;;;;;;0.00;0.00;;;10.40;91.10;;;;;;4167957;28;20464;-69
2022/04/27 05:14:14;;;;;;;0.00;0.00;;;10.30;91.10;;;;;;4181687;28;20098;-68
2022/04/27 05:16:57;;;;;;;0.00;0.00;;;10.40;91.10;;;;;;4177203;28;20052;-66
2022/04/27 05:19:31;;;;;;;0.00;0.00;;;10.40;91.10;;;;;;4184765;28;20430;-67
2022/04/27 05:22:13;;;;;;;0.00;0.00;;;10.50;91.10;;;;;;4184543;28;20041;-68
2022/04/27 05:24:56;;;;;;;0.00;0.00;;;10.60;91.00;;;;;;4199836;28;20073;-68
2022/04/27 05:27:47;;;;;;;0.00;0.00;;;10.80;90.90;;;;;;4197140;28;20044;-69
2022/04/27 05:33:33;;;;;;;0.00;0.00;;;10.80;90.80;;;;;;4198202;28;20049;-66
2022/04/27 05:35:59;;;;;;;0.00;0.00;;;10.70;90.90;;;;;;4187549;28;20049;-67
2022/04/27 05:38:39;;;;;;;0.00;0.00;;;10.70;91.00;;;;;;4167951;28;20499;-68
2022/04/27 05:41:23;;;;;;;0.00;0.00;;;10.60;91.10;;;;;;4153289;28;20046;-69
2022/04/27 05:43:54;;;;;;;0.00;0.00;;;10.60;91.10;;;;;;4154492;28;20057;-69
2022/04/27 05:46:41;;;;;;;0.00;0.00;;;10.80;91.20;;;;;;4170496;28;20484;-69
2022/04/27 05:49:23;;;;;;;0.00;0.00;;;10.90;91.20;;;;;;4170208;28;20057;-66
2022/04/27 05:51:46;;;;;;;0.00;0.00;;;11.00;91.10;;;;;;4184206;28;20195;-68
2022/04/27 05:54:27;;;;;;;0.00;0.00;;;11.10;91.00;;;;;;4184352;28;20045;-69
2022/04/27 05:57:03;;;;;;;0.00;0.00;;;11.30;90.80;;;;;;4184084;28;20052;-68
2022/04/27 05:59:47;;;;;;;0.00;0.00;;;11.30;90.70;;;;;;4158984;28;20046;-68
2022/04/27 06:02:38;;;;;;;0.00;0.00;;;11.10;90.80;;;;;;4184315;28;20052;-68
2022/04/27 06:05:00;;;;;;;0.00;0.00;;;11.20;91.00;;;;;;4184230;28;20483;-69
2022/04/27 06:07:25;;;;;;;0.00;0.00;;;11.20;90.90;;;;;;4169734;28;20444;-70
2022/04/27 06:09:54;;;;;;;0.00;0.00;;;11.40;90.70;;;;;;4170244;28;20107;-70
2022/04/27 06:12:33;;;;;;;;;;;11.60;90.60;;;;;;4157901;28;20053;-69
2022/04/27 06:15:25;;;;;;;0.00;0.00;;;11.70;90.00;;;;;;4183706;28;19920;-70
2022/04/27 06:17:52;;;;;;;0.00;0.00;;;11.70;89.90;;;;;;4170151;28;20065;-68
2022/04/27 06:20:14;;;;;;;0.00;0.00;;;12.00;89.60;;;;;;4170018;28;20073;-69
2022/04/27 06:22:39;;;;;;;0.00;0.00;;;12.30;88.50;;;;;;4184026;28;20471;-66
2022/04/27 06:25:04;;;;;;;0.00;0.00;;;12.40;88.00;;;;;;4186711;28;20056;-68
2022/04/27 06:27:37;;;;;;;0.00;0.00;;;12.60;87.10;;;;;;4186084;28;20045;-68
2022/04/27 06:30:02;;;;;;;0.00;0.00;;;12.70;86.00;;;;;;4173301;28;20132;-70
2022/04/27 06:32:30;;;;;;;0.00;0.00;;;12.40;85.20;;;;;;4186314;28;20051;-68
2022/04/27 06:34:57;;;;;;;0.00;0.00;;;12.10;85.80;;;;;;4186354;28;20057;-67
2022/04/27 06:37:19;;;;;;;0.00;0.00;;;12.00;85.80;;;;;;4176865;28;20045;-67
2022/04/27 06:39:45;;;;;;;0.00;0.00;;;12.10;86.10;;;;;;4183843;28;20460;-69
2022/04/27 06:42:09;;;;;;;0.00;0.00;;;12.20;85.30;;;;;;4169711;28;20041;-68
2022/04/27 06:44:33;;;;;;;0.00;0.00;;;12.00;85.50;;;;;;4184047;28;20045;-69
2022/04/27 06:47:17;;;;;;;0.00;0.00;;;12.00;86.30;;;;;;4186086;28;20090;-69
2022/04/27 06:50:17;;;;;;;0.00;0.00;;;12.30;85.40;;;;;;4117558;28;20070;-69
2022/04/27 06:53:02;;;;;;;0.00;0.00;;;12.60;85.00;;;;;;4166344;28;20077;-68
2022/04/27 06:55:36;;;;;;;0.00;0.00;;;12.50;85.30;;;;;;4180744;28;20069;-69
2022/04/27 06:58:17;;;;;;;0.00;0.00;;;12.50;86.00;;;;;;4169631;28;20053;-69
2022/04/27 07:00:54;;;;;;;0.00;0.00;;;12.80;85.40;;;;;;4153479;28;20042;-71
2022/04/27 07:03:16;;;;;;;0.00;0.00;;;13.00;85.30;;;;;;4153319;28;20452;-67
2022/04/27 07:05:38;;;;;;;0.00;0.00;;;13.10;85.00;;;;;;4167743;28;20484;-68
2022/04/27 07:08:06;;;;;;;0.00;0.00;;;13.10;85.00;;;;;;4167335;28;20073;-68
2022/04/27 07:10:36;;;;;;;0.00;0.00;;;13.20;85.20;;;;;;4167290;28;20433;-69
2022/04/27 07:13:00;;;;;;;0.00;0.00;;;13.40;85.10;;;;;;4166945;28;20052;-67
2022/04/27 07:15:25;;;;;;;0.00;0.00;;;13.80;84.80;;;;;;4167350;28;20045;-69
2022/04/27 07:17:47;;;;;;;0.00;0.00;;;14.10;83.90;;;;;;4167170;28;20091;-70
2022/04/27 07:20:12;;;;;;;0.00;0.00;;;14.20;82.60;;;;;;4167623;28;20042;-68
2022/04/27 07:22:37;;;;;;;0.00;0.00;;;14.20;82.30;;;;;;4193882;28;20064;-70
2022/04/27 07:24:59;;;;;;;0.00;0.00;;;14.20;82.20;;;;;;4200064;28;20040;-69
2022/04/27 07:27:21;;;;;;;0.00;0.00;;;14.30;82.00;;;;;;4185533;28;20049;-68
2022/04/27 07:29:43;;;;;;;0.00;0.00;;;14.10;82.00;;;;;;4200038;28;20090;-70
2022/04/27 07:32:05;;;;;;;0.00;0.00;;;13.70;82.20;;;;;;4199893;28;20098;-67
2022/04/27 07:34:28;;;;;;;0.00;0.00;;;13.60;82.40;;;;;;4200015;28;20085;-70
2022/04/27 07:36:52;;;;;;;0.00;0.00;;;13.60;83.20;;;;;;4199696;28;20071;-69
2022/04/27 07:39:19;;;;;;;0.00;0.00;;;13.60;82.40;;;;;;4185254;28;20367;-69
2022/04/27 07:41:41;;;;;;;0.00;0.00;;;13.60;82.60;;;;;;4172665;28;20083;-67
2022/04/27 07:44:07;;;;;;;0.00;0.00;;;13.40;83.10;;;;;;4199707;28;20045;-67
2022/04/27 07:46:29;;;;;;;0.00;0.00;;;13.30;85.20;;;;;;4186121;28;20447;-70
2022/04/27 07:48:54;;;;;;;0.00;0.00;;;13.70;83.80;;;;;;4199951;28;20103;-69
2022/04/27 07:51:19;;;;;;;0.00;0.00;;;13.70;81.90;;;;;;4186294;28;20060;-68
2022/04/27 07:53:41;;;;;;;0.00;0.00;;;13.30;83.60;;;;;;4186371;28;20490;-69
2022/04/27 07:56:05;;;;;;;0.00;0.00;;;13.30;83.90;;;;;;4200218;28;20371;-70
2022/04/27 07:58:31;;;;;;;0.00;0.00;;;13.30;82.90;;;;;;4186244;28;20417;-69
2022/04/27 08:00:55;;;;;;;0.00;0.00;;;13.30;83.70;;;;;;4172774;28;20102;-68
2022/04/27 08:03:17;;;;;;;0.00;0.00;;;13.60;82.60;;;;;;4185566;28;20531;-68
2022/04/27 08:05:39;;;;;;;0.00;0.00;;;13.60;82.40;;;;;;4202527;28;20082;-69
2022/04/27 08:08:08;;;;;;;0.00;0.00;;;13.70;82.40;;;;;;4203236;28;20617;-67
2022/04/27 08:10:30;;;;;;;0.00;0.00;;;13.60;83.40;;;;;;4202760;28;20056;-67
2022/04/27 08:12:54;;;;;;;0.00;0.00;;;13.70;82.60;;;;;;4188811;28;20052;-68
2022/04/27 08:15:23;;;;;;;0.00;0.00;;;13.90;82.20;;;;;;4188534;28;20060;-70
2022/04/27 08:18:01;;;;;;;;;;;14.00;82.30;;;;;;4189077;28;20345;-70
2022/04/27 08:23:16;;;;;;;0.00;0.00;;;13.70;82.60;;;;;;4169209;28;20132;-68
2022/04/27 08:25:39;;;;;;;0.00;0.00;;;13.70;82.50;;;;;;4169464;28;20054;-70
2022/04/27 08:28:11;;;;;;;0.00;0.00;;;13.60;84.00;;;;;;4169369;28;20116;-68
2022/04/27 08:30:35;;;;;;;0.00;0.00;;;14.00;83.20;;;;;;4169192;28;20045;-66
2022/04/27 08:32:59;;;;;;;0.00;0.00;;;13.90;82.00;;;;;;4169084;28;20052;-70
2022/04/27 08:35:24;;;;;;;0.00;0.00;;;14.00;82.30;;;;;;4168675;28;20041;-68
2022/04/27 08:37:46;;;;;;;0.00;0.00;;;13.90;82.00;;;;;;4171606;28;20057;-69
2022/04/27 08:40:08;;;;;;;0.00;0.00;;;13.90;81.70;;;;;;4171474;28;20123;-68
2022/04/27 08:42:30;;;;;;;0.00;0.00;;;13.90;81.80;;;;;;4185836;28;20426;-69
2022/04/27 08:44:57;;;;;;;0.00;0.00;;;14.20;81.50;;;;;;4171606;28;20045;-69
2022/04/27 08:47:20;;;;;;;0.00;0.00;;;14.00;81.70;;;;;;4185058;28;20095;-68
2022/04/27 08:49:42;;;;;;;0.00;0.00;;;14.50;82.00;;;;;;4185242;28;20083;-72
2022/04/27 08:52:10;;;;;;;0.00;0.00;;;15.00;80.80;;;;;;4199238;28;20094;-69
2022/04/27 08:54:33;;;;;;;0.00;0.00;;;15.40;78.80;;;;;;4171569;28;20061;-68
2022/04/27 08:56:56;;;;;;;0.00;0.00;;;15.20;78.40;;;;;;4185290;28;20344;-70
2022/04/27 08:59:23;;;;;;;0.00;0.00;;;15.20;78.70;;;;;;4184442;28;20079;-69
2022/04/27 09:01:45;;;;;;;0.00;0.00;;;14.90;78.10;;;;;;4185476;28;20052;-67
2022/04/27 09:04:19;;;;;;;0.00;0.00;;;14.50;79.30;;;;;;4185040;28;20048;-68
2022/04/27 09:06:41;;;;;;;0.00;0.00;;;14.50;79.70;;;;;;4185136;28;20049;-68
2022/04/27 09:09:03;;;;;;;0.00;0.00;;;14.50;79.80;;;;;;4185231;28;20132;-69
2022/04/27 09:11:28;;;;;;;0.00;0.00;;;14.70;79.90;;;;;;4184796;28;20052;-69
2022/04/27 09:13:52;;;;;;;0.00;0.00;;;14.60;79.30;;;;;;4171294;28;20044;-67
2022/04/27 09:16:14;;;;;;;0.00;0.00;;;14.50;79.00;;;;;;4183961;28;20055;-68
2022/04/27 09:22:01;;;;;;;0.00;0.00;;;14.30;80.70;;;;;;4190493;28;20061;-68
2022/04/27 09:24:29;;;;;;;0.00;0.00;;;14.50;82.10;;;;;;4201515;28;20040;-70
2022/04/27 09:26:59;;;;;;;0.00;0.00;;;14.80;80.70;;;;;;4187662;28;20075;-68
2022/04/27 09:29:25;;;;;;;0.00;0.00;;;15.30;80.40;;;;;;4178151;28;20102;-68
2022/04/27 09:31:57;;;;;;;0.00;0.00;;;15.40;78.20;;;;;;4187574;28;20056;-68
2022/04/27 09:34:28;;;;;;;0.00;0.00;;;15.20;77.40;;;;;;4187643;28;20052;-67
2022/04/27 09:37:00;;;;;;;0.00;0.00;;;15.40;77.80;;;;;;4200808;28;20079;-68
2022/04/27 09:39:25;;;;;;;0.00;0.00;;;15.60;77.40;;;;;;4186904;28;20055;-67
2022/04/27 09:41:52;;;;;;;0.00;0.00;;;15.50;77.80;;;;;;4174417;28;20040;-70
2022/04/27 09:44:34;;;;;;;0.00;0.00;;;15.40;78.20;;;;;;4187746;28;20429;-68
2022/04/27 09:46:58;;;;;;;0.00;0.00;;;15.60;76.70;;;;;;4201124;28;20475;-70
2022/04/27 09:49:20;;;;;;;0.00;0.00;;;15.50;76.90;;;;;;4189479;28;20494;-68
2022/04/27 09:51:54;;;;;;;0.00;0.00;;;15.50;77.10;;;;;;4170859;28;20053;-67
2022/04/27 09:54:25;;;;;;;0.00;0.00;;;15.50;76.80;;;;;;4170739;28;20064;-69
2022/04/27 09:56:55;;;;;;;0.00;0.00;;;15.80;77.30;;;;;;4184161;28;20045;-70
2022/04/27 09:59:26;;;;;;;0.00;0.00;;;16.10;77.00;;;;;;4183953;28;20487;-71
2022/04/27 10:01:53;;;;;;;0.00;0.00;;;16.40;76.00;;;;;;4184345;28;20052;-68
2022/04/27 10:04:20;;;;;;;0.00;0.00;;;16.50;74.90;;;;;;4184395;28;20060;-69
2022/04/27 10:06:42;;;;;;;0.00;0.00;;;15.90;74.50;;;;;;4170371;28;20060;-70
2022/04/27 10:09:04;;;;;;;0.00;0.00;;;15.50;76.50;;;;;;4156765;28;20041;-71
2022/04/27 10:11:47;;;;;;;0.00;0.00;;;15.30;76.60;;;;;;4183907;28;20469;-70
2022/04/27 10:14:14;;;;;;;0.00;0.00;;;15.30;76.40;;;;;;4184088;28;20541;-69
2022/04/27 10:16:37;;;;;;;0.00;0.00;;;15.60;76.80;;;;;;4184231;28;20168;-70
2022/04/27 10:18:59;;;;;;;0.00;0.00;;;16.00;76.70;;;;;;4183965;28;20044;-72
2022/04/27 10:21:56;;;;;;;0.00;0.00;;;16.10;74.20;;;;;;4163112;28;20041;-70
2022/04/27 10:24:46;;;;;;;0.00;0.00;;;16.00;76.00;;;;;;4200236;28;20127;-70
2022/04/27 10:27:18;;;;;;;0.00;0.00;;;16.30;76.40;;;;;;4200417;28;20401;-69
2022/04/27 10:29:43;;;;;;;0.00;0.00;;;16.50;75.60;;;;;;4199891;28;20044;-70
2022/04/27 10:32:08;;;;;;;0.00;0.00;;;16.50;74.80;;;;;;4200494;28;20048;-70
2022/04/27 10:34:33;;;;;;;0.00;0.00;;;16.70;73.40;;;;;;4186557;28;20044;-69
2022/04/27 10:37:00;;;;;;;0.00;0.00;;;16.50;74.30;;;;;;4200570;28;20442;-68
2022/04/27 10:39:34;;;;;;;0.00;0.00;;;16.70;74.20;;;;;;4199887;28;20351;-70
2022/04/27 10:42:05;;;;;;;0.00;0.00;;;16.90;73.80;;;;;;4200228;28;20052;-68
2022/04/27 10:44:53;;;;;;;0.00;0.00;;;17.10;73.10;;;;;;4200325;28;20044;-69
2022/04/27 10:47:20;;;;;;;0.00;0.00;;;16.50;72.60;;;;;;4199791;28;20119;-68
2022/04/27 10:49:42;;;;;;;0.00;0.00;;;16.20;74.90;;;;;;4172272;28;20503;-68
2022/04/27 10:52:08;;;;;;;0.00;0.00;;;16.20;75.90;;;;;;4183455;28;20048;-71
2022/04/27 10:54:32;;;;;;;0.00;0.00;;;16.50;74.80;;;;;;4183532;28;20179;-68
2022/04/27 10:57:18;;;;;;;0.00;0.00;;;16.70;74.50;;;;;;4183146;28;20114;-68
2022/04/27 10:59:51;;;;;;;0.00;0.00;;;16.90;74.00;;;;;;4182873;28;20078;-69
2022/04/27 11:02:45;;;;;;;0.00;0.00;;;17.00;73.40;;;;;;4183429;28;20064;-70
2022/04/27 11:05:13;;;;;;;0.00;0.00;;;17.30;73.10;;;;;;4183126;28;20071;-69
2022/04/27 11:08:09;;;;;;;0.00;0.00;;;17.60;71.50;;;;;;4182876;28;20125;-68
2022/04/27 11:10:34;;;;;;;0.00;0.00;;;17.40;69.90;;;;;;4183080;28;20051;-70
2022/04/27 11:13:05;;;;;;;0.00;0.00;;;17.50;69.20;;;;;;4169639;28;20061;-68
2022/04/27 11:15:27;;;;;;;0.00;0.00;;;17.70;69.30;;;;;;4182801;28;20115;-70
2022/04/27 11:18:02;;;;;;;0.00;0.00;;;17.90;68.00;;;;;;4156201;28;20049;-68
2022/04/27 11:20:36;;;;;;;0.00;0.00;;;18.00;66.80;;;;;;4183239;28;20052;-67
2022/04/27 11:22:59;;;;;;;0.00;0.00;;;18.00;66.30;;;;;;4183206;28;20110;-66
2022/04/27 11:25:32;;;;;;;0.00;0.00;;;18.00;67.30;;;;;;4168883;28;20060;-69
2022/04/27 11:27:59;;;;;;;0.00;0.00;;;17.80;66.10;;;;;;4183242;28;20048;-66
2022/04/27 11:30:23;;;;;;;0.00;0.00;;;17.90;65.00;;;;;;4169446;28;20057;-71
2022/04/27 11:32:48;;;;;;;0.00;0.00;;;17.70;64.70;;;;;;4169581;28;20088;-67
2022/04/27 11:35:12;;;;;;;0.00;0.00;;;17.90;65.40;;;;;;4169670;28;20083;-69
2022/04/27 11:37:40;;;;;;;0.00;0.00;;;17.90;64.80;;;;;;4182587;28;20052;-68
2022/04/27 11:40:15;;;;;;;0.00;0.00;;;17.80;63.40;;;;;;4170644;28;20148;-69
2022/04/27 11:42:49;;;;;;;0.00;0.00;;;17.80;64.40;;;;;;4186365;28;20071;-71
2022/04/27 11:45:22;;;;;;;0.00;0.00;;;17.90;62.80;;;;;;4158785;28;20080;-66
2022/04/27 11:47:44;;;;;;;0.00;0.00;;;17.90;63.40;;;;;;4186445;28;20049;-67
2022/04/27 11:50:07;;;;;;;0.00;0.00;;;18.10;63.60;;;;;;4183703;28;20136;-68
2022/04/27 11:52:39;;;;;;;0.00;0.00;;;18.20;63.70;;;;;;4156474;28;20136;-66
2022/04/27 11:55:08;;;;;;;0.00;0.00;;;18.40;63.70;;;;;;4169923;28;20060;-70
2022/04/27 11:57:32;;;;;;;0.00;0.00;;;18.50;61.60;;;;;;4162932;28;20398;-67
2022/04/27 11:59:57;;;;;;;0.00;0.00;;;18.10;62.20;;;;;;4153294;28;20108;-68
2022/04/27 12:02:36;;;;;;;0.00;0.00;;;18.10;62.20;;;;;;4167017;28;20055;-67
2022/04/27 12:04:59;;;;;;;0.00;0.00;;;17.90;61.70;;;;;;4153489;28;20054;-70
2022/04/27 12:07:32;;;;;;;0.00;0.00;;;17.90;61.50;;;;;;4155308;28;20049;-69
2022/04/27 12:09:58;;;;;;;0.00;0.00;;;18.10;62.60;;;;;;4156008;28;20140;-69
2022/04/27 12:12:20;;;;;;;0.00;0.00;;;18.40;61.00;;;;;;4155905;28;20446;-69
2022/04/27 12:14:42;;;;;;;0.00;0.00;;;18.40;60.70;;;;;;4142082;28;20459;-70
2022/04/27 12:17:39;;;;;;;0.00;0.00;;;18.30;61.30;;;;;;4169454;28;20053;-67
2022/04/27 12:20:04;;;;;;;0.00;0.00;;;18.60;61.20;;;;;;4183011;28;20103;-69
2022/04/27 12:22:28;;;;;;;0.00;0.00;;;18.70;60.40;;;;;;4155626;28;20054;-67
2022/04/27 12:24:50;;;;;;;0.00;0.00;;;18.70;59.70;;;;;;4155704;28;20060;-69
2022/04/27 12:27:23;;;;;;;0.00;0.00;;;18.60;59.70;;;;;;4139107;28;20052;-67
2022/04/27 12:29:50;;;;;;;0.00;0.00;;;18.60;59.80;;;;;;4169205;28;20057;-69
2022/04/27 12:32:15;;;;;;;0.00;0.00;;;18.80;58.90;;;;;;4155578;28;20054;-66
2022/04/27 12:37:31;;;;;;;0.00;0.00;;;18.60;58.00;;;;;;4168545;28;20049;-68
2022/04/27 12:39:53;;;;;;;0.00;0.00;;;18.50;60.30;;;;;;4155319;28;20068;-66
2022/04/27 12:42:16;;;;;;;0.00;0.00;;;18.50;59.40;;;;;;4155062;28;20042;-68
2022/04/27 12:44:45;;;;;;;0.00;0.00;;;18.50;58.20;;;;;;4155555;28;20060;-69
2022/04/27 12:47:12;;;;;;;0.00;0.00;;;18.70;58.30;;;;;;4168959;28;20125;-66
2022/04/27 12:49:38;;;;;;;0.00;0.00;;;18.70;59.50;;;;;;4154784;28;20161;-70
2022/04/27 12:52:26;;;;;;;0.00;0.00;;;18.80;58.90;;;;;;4155616;28;20045;-66
2022/04/27 12:54:55;;;;;;;0.00;0.00;;;18.80;58.60;;;;;;4168759;28;20380;-66
2022/04/27 12:57:21;;;;;;;0.00;0.00;;;18.80;58.90;;;;;;4162367;28;20087;-68
2022/04/27 13:00:00;;;;;;;0.00;0.00;;;18.80;58.00;;;;;;4155033;28;20046;-66
2022/04/27 13:02:22;;;;;;;0.00;0.00;;;18.90;57.60;;;;;;4185375;28;20053;-70
2022/04/27 13:04:46;;;;;;;0.00;0.00;;;18.80;58.20;;;;;;4171765;28;20079;-72
2022/04/27 13:07:08;;;;;;;0.00;0.00;;;18.80;57.90;;;;;;4171212;28;20460;-67
2022/04/27 13:12:15;;;;;;;0.00;0.00;;;18.60;58.40;;;;;;4185269;28;20064;-68
2022/04/27 13:14:42;;;;;;;0.00;0.00;;;18.70;58.50;;;;;;4171473;28;20128;-68
2022/04/27 13:17:04;;;;;;;0.00;0.00;;;18.50;58.30;;;;;;4171208;28;20049;-69
2022/04/27 13:19:26;;;;;;;0.00;0.00;;;18.50;58.00;;;;;;4170970;28;20068;-71
2022/04/27 13:21:54;;;;;;;0.00;0.00;;;18.50;59.10;;;;;;4192544;28;20044;-68